createdAt,value
2023-04-30T00:02:22.031Z,12.23
2023-04-30T00:04:49.015Z,9.60
2023-04-30T00:07:16.138Z,9.25
2023-04-30T00:09:43.203Z,9.35
2023-04-30T00:12:10.070Z,11.05
2023-04-30T00:14:36.950Z,13.95
2023-04-30T00:17:03.790Z,11.02
2023-04-30T00:19:30.766Z,11.82
2023-04-30T00:21:57.719Z,12.27
2023-04-30T00:24:24.816Z,9.40
2023-04-30T00:26:51.651Z,10.25
2023-04-30T00:29:18.600Z,9.38
2023-04-30T00:31:45.536Z,9.82
2023-04-30T00:34:14.467Z,10.30
2023-04-30T00:36:41.353Z,8.32
2023-04-30T00:39:08.258Z,8.63
2023-04-30T00:41:36.196Z,11.70
2023-04-30T00:44:03.182Z,9.50
2023-04-30T00:46:30.901Z,11.02
2023-04-30T00:48:58.329Z,14.63
2023-04-30T00:51:26.709Z,11.00
2023-04-30T00:53:54.095Z,11.80
2023-04-30T00:56:21.211Z,10.02
2023-04-30T00:58:51.085Z,10.32
2023-04-30T01:01:18.710Z,11.00
2023-04-30T01:03:46.494Z,9.27
2023-04-30T01:06:13.476Z,9.60
2023-04-30T01:08:40.557Z,10.35
2023-04-30T01:11:22.648Z,10.20
2023-04-30T01:14:05.081Z,8.75
2023-04-30T01:16:40.790Z,9.73
2023-04-30T01:19:43.165Z,9.95
2023-04-30T01:22:30.245Z,10.82
2023-04-30T01:25:50.084Z,7.97
2023-04-30T01:28:22.416Z,10.50
2023-04-30T01:30:50.597Z,10.02
2023-04-30T01:33:17.653Z,9.82
2023-04-30T01:36:19.332Z,10.60
2023-04-30T01:39:33.720Z,8.88
2023-04-30T01:42:25.629Z,9.95
2023-04-30T01:45:39.919Z,9.93
2023-04-30T01:49:01.399Z,10.48
2023-04-30T01:51:43.668Z,11.13
2023-04-30T01:54:38.827Z,10.60
2023-04-30T01:57:10.787Z,11.48
2023-04-30T01:59:40.996Z,10.23
2023-04-30T02:02:08.038Z,9.98
2023-04-30T02:04:35.018Z,9.85
2023-04-30T02:07:03.790Z,8.98
2023-04-30T02:09:30.844Z,9.88
2023-04-30T02:11:57.876Z,11.73
2023-04-30T02:14:25.494Z,10.27
2023-04-30T02:16:53.362Z,9.45
2023-04-30T02:19:20.330Z,9.70
2023-04-30T02:21:47.184Z,9.75
2023-04-30T02:24:14.070Z,9.70
2023-04-30T02:26:40.964Z,10.02
2023-04-30T02:29:07.811Z,10.10
2023-04-30T02:31:34.775Z,10.07
2023-04-30T02:34:01.698Z,10.07
2023-04-30T02:36:28.665Z,10.43
2023-04-30T02:38:55.800Z,10.15
2023-04-30T02:41:22.769Z,9.18
2023-04-30T02:43:49.692Z,12.82
2023-04-30T02:46:16.684Z,10.43
2023-04-30T02:48:43.753Z,10.05
2023-04-30T02:51:10.733Z,9.73
2023-04-30T02:53:37.653Z,10.32
2023-04-30T02:56:05.141Z,10.02
2023-04-30T02:58:32.067Z,8.82
2023-04-30T03:00:59.644Z,9.68
2023-04-30T03:03:26.857Z,8.75
2023-04-30T03:05:56.597Z,10.88
2023-04-30T03:08:23.590Z,10.55
2023-04-30T03:10:50.526Z,11.68
2023-04-30T03:13:17.910Z,11.85
2023-04-30T03:15:44.976Z,14.25
2023-04-30T03:18:12.474Z,11.23
2023-04-30T03:20:39.376Z,8.48
2023-04-30T03:23:06.873Z,10.85
2023-04-30T03:25:33.738Z,11.52
2023-04-30T03:28:00.748Z,10.02
2023-04-30T03:30:27.653Z,9.23
2023-04-30T03:32:54.642Z,13.43
2023-04-30T03:35:21.837Z,10.05
2023-04-30T03:37:48.900Z,12.38
2023-04-30T03:40:15.869Z,10.25
2023-04-30T03:42:43.097Z,13.65
2023-04-30T03:45:10.713Z,12.30
2023-04-30T03:47:37.799Z,10.63
2023-04-30T03:50:05.836Z,10.05
2023-04-30T03:52:33.750Z,9.60
2023-04-30T03:55:00.755Z,12.05
2023-04-30T03:57:27.727Z,13.35
2023-04-30T03:59:55.313Z,10.38
2023-04-30T04:02:23.410Z,11.07
2023-04-30T04:04:51.853Z,11.15
2023-04-30T04:07:19.144Z,12.88
2023-04-30T04:09:46.375Z,11.05
2023-04-30T04:12:13.442Z,12.75
2023-04-30T04:14:40.558Z,10.98
2023-04-30T04:17:08.345Z,13.10
2023-04-30T04:19:35.396Z,11.75
2023-04-30T04:22:02.780Z,9.68
2023-04-30T04:24:29.874Z,12.07
2023-04-30T04:26:56.859Z,12.70
2023-04-30T04:29:24.114Z,13.18
2023-04-30T04:31:51.316Z,12.40
2023-04-30T04:34:20.070Z,11.05
2023-04-30T04:36:47.458Z,11.38
2023-04-30T04:39:14.896Z,13.80
2023-04-30T04:41:42.523Z,13.00
2023-04-30T04:44:09.526Z,12.85
2023-04-30T04:46:38.510Z,13.10
2023-04-30T04:49:05.717Z,12.98
2023-04-30T04:51:33.006Z,12.63
2023-04-30T04:54:00.659Z,12.10
2023-04-30T04:56:27.722Z,11.27
2023-04-30T04:58:55.144Z,13.30
2023-04-30T05:01:22.453Z,13.27
2023-04-30T05:03:51.577Z,10.23
2023-04-30T05:06:20.268Z,13.70
2023-04-30T05:08:48.008Z,17.10
2023-04-30T05:11:15.962Z,13.65
2023-04-30T05:13:44.533Z,11.98
2023-04-30T05:16:11.699Z,12.10
2023-04-30T05:18:38.956Z,11.65
2023-04-30T05:21:06.221Z,14.13
2023-04-30T05:23:33.428Z,13.65
2023-04-30T05:26:00.487Z,16.30
2023-04-30T05:28:27.500Z,11.45
2023-04-30T05:30:55.223Z,13.30
2023-04-30T05:33:22.635Z,13.65
2023-04-30T05:35:49.986Z,10.75
2023-04-30T05:38:17.607Z,15.18
2023-04-30T05:40:46.275Z,9.65
2023-04-30T05:43:13.684Z,11.88
2023-04-30T05:45:41.576Z,14.32
2023-04-30T05:48:08.869Z,12.02
2023-04-30T05:50:36.689Z,13.25
2023-04-30T05:53:03.764Z,13.55
2023-04-30T05:55:32.320Z,12.68
2023-04-30T05:58:00.028Z,10.85
2023-04-30T06:00:28.822Z,13.88
2023-04-30T06:02:56.377Z,13.13
2023-04-30T06:05:23.628Z,11.65
2023-04-30T06:07:50.777Z,13.80
2023-04-30T06:10:17.979Z,16.80
2023-04-30T06:12:45.234Z,14.95
2023-04-30T06:15:12.225Z,12.20
2023-04-30T06:17:39.470Z,11.35
2023-04-30T06:20:08.101Z,14.38
2023-04-30T06:22:35.186Z,14.18
2023-04-30T06:25:03.422Z,13.25
2023-04-30T06:27:32.245Z,16.67
2023-04-30T06:30:00.941Z,15.20
2023-04-30T06:32:28.129Z,17.52
2023-04-30T06:34:55.812Z,15.38
2023-04-30T06:37:22.747Z,17.48
2023-04-30T06:39:50.108Z,17.40
2023-04-30T06:42:17.135Z,16.50
2023-04-30T06:44:45.534Z,13.73
2023-04-30T06:47:12.674Z,16.85
2023-04-30T06:49:39.671Z,12.70
2023-04-30T06:52:07.804Z,12.75
2023-04-30T06:54:34.900Z,12.57
2023-04-30T06:57:02.116Z,12.98
2023-04-30T06:59:29.511Z,14.13
2023-04-30T07:01:56.876Z,17.13
2023-04-30T07:04:24.588Z,11.02
2023-04-30T07:06:52.355Z,16.05
2023-04-30T07:09:19.545Z,10.95
2023-04-30T07:11:52.041Z,10.07
2023-04-30T07:14:19.920Z,11.70
2023-04-30T07:16:49.752Z,10.93
2023-04-30T07:19:16.665Z,12.88
2023-04-30T07:21:53.132Z,12.77
2023-04-30T07:24:19.981Z,16.33
2023-04-30T07:26:46.823Z,12.43
2023-04-30T07:29:13.666Z,10.05
2023-04-30T07:31:40.669Z,11.80
2023-04-30T07:34:08.691Z,11.73
2023-04-30T07:36:35.805Z,12.25
2023-04-30T07:39:02.782Z,10.60
2023-04-30T07:41:29.830Z,10.63
2023-04-30T07:43:56.788Z,10.15
2023-04-30T07:46:25.906Z,12.60
2023-04-30T07:48:52.844Z,11.85
2023-04-30T07:51:19.823Z,12.82
2023-04-30T07:53:46.995Z,9.25
2023-04-30T07:56:13.898Z,11.43
2023-04-30T07:58:41.556Z,13.80
2023-04-30T08:01:08.370Z,11.75
2023-04-30T08:03:35.366Z,14.25
2023-04-30T08:06:03.034Z,11.80
2023-04-30T08:08:29.911Z,11.82
2023-04-30T08:10:56.843Z,8.00
2023-04-30T08:13:23.696Z,9.30
2023-04-30T08:15:50.771Z,11.63
2023-04-30T08:18:17.749Z,9.52
2023-04-30T08:20:44.809Z,10.13
2023-04-30T08:23:11.690Z,11.77
2023-04-30T08:25:38.606Z,12.23
2023-04-30T08:28:07.022Z,11.95
2023-04-30T08:30:33.855Z,9.48
2023-04-30T08:33:00.761Z,7.15
2023-04-30T08:35:29.714Z,8.98
2023-04-30T08:37:56.667Z,13.25
2023-04-30T08:40:33.833Z,7.32
2023-04-30T08:43:11.775Z,7.47
2023-04-30T08:45:38.890Z,6.25
2023-04-30T08:48:11.676Z,8.77
2023-04-30T08:50:38.893Z,6.15
2023-04-30T08:53:07.993Z,9.75
2023-04-30T08:55:35.239Z,7.75
2023-04-30T08:58:02.560Z,8.45
2023-04-30T09:00:33.729Z,9.85
2023-04-30T09:03:01.674Z,7.15
2023-04-30T09:05:28.888Z,9.15
2023-04-30T09:08:03.538Z,7.97
2023-04-30T09:10:35.488Z,10.20
2023-04-30T09:13:09.585Z,7.13
2023-04-30T09:15:39.175Z,7.53
2023-04-30T09:18:18.257Z,4.60
2023-04-30T09:21:03.317Z,5.88
2023-04-30T09:23:30.699Z,5.03
2023-04-30T09:25:57.883Z,6.20
2023-04-30T09:28:26.576Z,6.10
2023-04-30T09:30:53.812Z,5.50
2023-04-30T09:33:20.818Z,5.40
2023-04-30T09:35:47.861Z,5.97
2023-04-30T09:38:33.006Z,5.22
2023-04-30T09:41:01.953Z,4.78
2023-04-30T09:43:30.069Z,5.47
2023-04-30T09:45:59.962Z,5.88
2023-04-30T09:48:30.400Z,5.82
2023-04-30T09:50:57.604Z,4.85
2023-04-30T09:53:24.546Z,4.40
2023-04-30T09:55:52.294Z,5.43
2023-04-30T09:58:20.025Z,4.75
2023-04-30T10:00:50.804Z,4.68
2023-04-30T10:03:19.113Z,6.85
2023-04-30T10:05:48.912Z,5.18
2023-04-30T10:08:28.220Z,5.65
2023-04-30T10:11:03.640Z,4.72
2023-04-30T10:13:43.534Z,6.38
2023-04-30T10:16:37.610Z,5.65
2023-04-30T10:19:12.568Z,4.35
2023-04-30T10:24:15.701Z,5.35
2023-04-30T10:26:43.593Z,7.40
2023-04-30T10:29:11.782Z,4.25
2023-04-30T10:31:46.502Z,6.20
2023-04-30T10:34:22.634Z,4.88
2023-04-30T10:36:59.044Z,4.20
2023-04-30T10:39:28.715Z,4.22
2023-04-30T10:42:06.822Z,4.97
2023-04-30T10:44:36.742Z,3.22
2023-04-30T10:47:05.808Z,5.78
2023-04-30T10:49:33.305Z,4.97
2023-04-30T10:52:03.655Z,3.70
2023-04-30T10:54:36.569Z,3.35
2023-04-30T10:57:18.273Z,5.35
2023-04-30T10:59:53.584Z,3.00
2023-04-30T11:02:21.317Z,3.20
2023-04-30T11:05:07.395Z,3.50
2023-04-30T11:07:34.856Z,3.97
2023-04-30T11:10:03.376Z,3.92
2023-04-30T11:12:30.423Z,3.22
2023-04-30T11:15:13.590Z,3.92
2023-04-30T11:17:40.550Z,3.00
2023-04-30T11:20:12.905Z,2.70
2023-04-30T11:22:40.445Z,2.72
2023-04-30T11:25:13.065Z,2.88
2023-04-30T11:27:45.191Z,2.15
2023-04-30T11:30:18.077Z,2.92
2023-04-30T11:32:49.732Z,2.95
2023-04-30T11:35:19.898Z,2.80
2023-04-30T11:37:48.969Z,2.30
2023-04-30T11:40:15.942Z,3.72
2023-04-30T11:42:46.078Z,2.30
2023-04-30T11:45:23.697Z,2.22
2023-04-30T11:47:53.875Z,4.28
2023-04-30T11:50:29.915Z,3.63
2023-04-30T11:53:01.748Z,2.75
2023-04-30T11:55:29.022Z,4.38
2023-04-30T11:57:59.356Z,2.83
2023-04-30T12:00:29.958Z,2.75
2023-04-30T12:03:03.703Z,2.75
2023-04-30T12:05:31.013Z,1.80
2023-04-30T12:08:01.292Z,1.27
2023-04-30T12:10:28.180Z,2.03
2023-04-30T12:12:55.393Z,2.88
2023-04-30T12:15:27.281Z,1.90
2023-04-30T12:17:58.337Z,3.38
2023-04-30T12:20:28.273Z,1.75
2023-04-30T12:22:55.945Z,2.03
2023-04-30T12:25:28.432Z,2.92
2023-04-30T12:27:55.593Z,1.88
2023-04-30T12:30:29.105Z,1.05
2023-04-30T12:33:00.555Z,2.15
2023-04-30T12:35:31.561Z,0.98
2023-04-30T12:38:09.466Z,0.77
2023-04-30T12:40:37.109Z,2.53
2023-04-30T12:43:08.087Z,1.90
2023-04-30T12:45:52.549Z,1.80
2023-04-30T12:48:22.838Z,2.28
2023-04-30T12:51:01.127Z,0.98
2023-04-30T12:53:29.522Z,1.73
2023-04-30T12:56:17.425Z,2.28
2023-04-30T12:58:50.029Z,2.50
2023-04-30T13:01:22.997Z,2.50
2023-04-30T13:03:51.297Z,0.80
2023-04-30T13:06:18.543Z,1.80
2023-04-30T13:08:58.010Z,3.33
2023-04-30T13:11:27.152Z,2.28
2023-04-30T13:13:55.732Z,1.67
2023-04-30T13:16:24.897Z,3.65
2023-04-30T13:18:52.158Z,0.98
2023-04-30T13:21:19.061Z,1.70
2023-04-30T13:23:53.717Z,1.02
2023-04-30T13:26:41.515Z,3.65
2023-04-30T13:29:21.438Z,1.92
2023-04-30T13:34:25.769Z,1.80
2023-04-30T13:36:53.567Z,1.85
2023-04-30T13:39:21.779Z,3.65
2023-04-30T13:41:49.168Z,1.75
2023-04-30T13:44:17.016Z,3.53
2023-04-30T13:46:43.967Z,3.83
2023-04-30T13:49:10.924Z,1.75
2023-04-30T13:51:38.034Z,1.92
2023-04-30T13:54:05.036Z,3.03
2023-04-30T13:56:32.142Z,1.65
2023-04-30T13:58:58.989Z,1.58
2023-04-30T14:01:26.141Z,1.80
2023-04-30T14:03:53.301Z,1.65
2023-04-30T14:06:20.783Z,1.50
2023-04-30T14:08:47.768Z,2.30
2023-04-30T14:11:14.716Z,2.33
2023-04-30T14:13:41.575Z,2.30
2023-04-30T14:16:08.893Z,2.13
2023-04-30T14:18:37.356Z,2.58
2023-04-30T14:21:04.222Z,1.75
2023-04-30T14:23:31.343Z,3.55
2023-04-30T14:25:58.353Z,4.45
2023-04-30T14:28:25.435Z,3.35
2023-04-30T14:30:52.822Z,2.38
2023-04-30T14:33:19.764Z,2.60
2023-04-30T14:35:47.449Z,1.85
2023-04-30T14:38:15.470Z,2.20
2023-04-30T14:40:44.681Z,3.33
2023-04-30T14:43:11.807Z,2.05
2023-04-30T14:45:40.166Z,2.65
2023-04-30T14:48:07.339Z,3.58
2023-04-30T14:50:34.305Z,1.70
2023-04-30T14:53:01.307Z,3.40
2023-04-30T14:55:28.352Z,2.97
2023-04-30T14:57:55.921Z,2.60
2023-04-30T15:00:22.978Z,2.42
2023-04-30T15:02:49.805Z,3.08
2023-04-30T15:05:16.929Z,2.13
2023-04-30T15:07:43.827Z,3.05
2023-04-30T15:10:11.239Z,1.55
2023-04-30T15:12:39.440Z,2.13
2023-04-30T15:15:07.902Z,2.60
2023-04-30T15:17:36.949Z,3.60
2023-04-30T15:20:08.726Z,1.98
2023-04-30T15:22:35.578Z,1.52
2023-04-30T15:25:03.858Z,3.92
2023-04-30T15:27:32.539Z,2.63
2023-04-30T15:30:02.280Z,4.90
2023-04-30T15:32:29.681Z,3.15
2023-04-30T15:34:56.921Z,2.70
2023-04-30T15:37:23.848Z,1.27
2023-04-30T15:39:54.534Z,1.70
2023-04-30T15:42:23.115Z,2.85
2023-04-30T15:44:50.476Z,1.33
2023-04-30T15:47:17.536Z,1.90
2023-04-30T15:49:44.512Z,2.20
2023-04-30T15:52:11.345Z,1.83
2023-04-30T15:54:38.558Z,3.28
2023-04-30T15:57:05.557Z,1.70
2023-04-30T15:59:32.505Z,1.73
2023-04-30T16:02:00.408Z,3.13
2023-04-30T16:04:27.862Z,5.95
2023-04-30T16:06:57.091Z,1.85
2023-04-30T16:09:24.262Z,1.92
2023-04-30T16:11:51.468Z,2.75
2023-04-30T16:14:18.925Z,1.65
2023-04-30T16:16:45.839Z,1.55
2023-04-30T16:19:13.960Z,2.60
2023-04-30T16:21:41.284Z,3.05
2023-04-30T16:24:10.286Z,3.42
2023-04-30T16:26:37.458Z,2.38
2023-04-30T16:29:05.017Z,2.05
2023-04-30T16:31:32.481Z,3.08
2023-04-30T16:33:59.393Z,3.15
2023-04-30T16:36:26.313Z,4.55
2023-04-30T16:38:53.139Z,3.15
2023-04-30T16:41:21.343Z,1.63
2023-04-30T16:43:48.159Z,1.88
2023-04-30T16:49:55.383Z,2.25
2023-04-30T16:52:22.775Z,5.78
2023-04-30T16:54:49.710Z,4.13
2023-04-30T16:57:16.842Z,2.55
2023-04-30T16:59:43.707Z,2.20
2023-04-30T17:02:10.616Z,3.45
2023-04-30T17:04:37.677Z,4.15
2023-04-30T17:07:04.530Z,2.60
2023-04-30T17:09:31.445Z,2.50
2023-04-30T17:11:58.429Z,2.25
2023-04-30T17:14:25.490Z,3.17
2023-04-30T17:16:52.308Z,2.17
2023-04-30T17:19:19.134Z,3.70
2023-04-30T17:21:46.044Z,2.95
2023-04-30T17:24:12.862Z,2.45
2023-04-30T17:26:39.715Z,1.27
2023-04-30T17:29:06.699Z,2.45
2023-04-30T17:31:33.682Z,2.33
2023-04-30T17:34:00.753Z,2.00
2023-04-30T17:36:28.796Z,3.70
2023-04-30T17:38:56.567Z,1.90
2023-04-30T17:41:24.073Z,5.88
2023-04-30T17:43:51.567Z,4.20
2023-04-30T17:46:18.481Z,2.60
2023-04-30T17:48:45.400Z,1.85
2023-04-30T17:51:12.462Z,2.40
2023-04-30T17:53:39.369Z,1.52
2023-04-30T17:56:06.874Z,4.47
2023-04-30T17:58:33.896Z,2.35
2023-04-30T18:01:01.780Z,2.70
2023-04-30T18:03:29.374Z,3.55
2023-04-30T18:06:00.221Z,3.42
2023-04-30T18:08:27.111Z,2.15
2023-04-30T18:10:55.019Z,3.28
2023-04-30T18:13:25.595Z,2.28
2023-04-30T18:15:56.375Z,1.75
2023-04-30T18:18:23.369Z,2.45
2023-04-30T18:20:51.054Z,2.53
2023-04-30T18:23:17.857Z,3.40
2023-04-30T18:25:44.860Z,3.80
2023-04-30T18:28:11.784Z,3.42
2023-04-30T18:30:38.667Z,2.15
2023-04-30T18:33:07.155Z,3.25
2023-04-30T18:35:34.857Z,4.22
2023-04-30T18:38:02.071Z,4.30
2023-04-30T18:40:29.229Z,3.15
2023-04-30T18:42:56.748Z,5.28
2023-04-30T18:45:24.078Z,1.27
2023-04-30T18:47:51.142Z,2.70
2023-04-30T18:50:19.481Z,5.90
2023-04-30T18:52:46.521Z,2.35
2023-04-30T18:55:14.078Z,2.40
2023-04-30T18:57:42.529Z,2.95
2023-04-30T19:00:14.058Z,3.42
2023-04-30T19:02:40.954Z,2.85
2023-04-30T19:05:08.176Z,3.95
2023-04-30T19:07:35.123Z,6.88
2023-04-30T19:10:03.921Z,3.55
2023-04-30T19:12:31.126Z,4.72
2023-04-30T19:14:58.747Z,2.47
2023-04-30T19:17:25.614Z,3.50
2023-04-30T19:19:53.150Z,4.22
2023-04-30T19:22:20.080Z,5.75
2023-04-30T19:24:46.933Z,5.03
2023-04-30T19:27:13.736Z,3.53
2023-04-30T19:29:40.626Z,5.32
2023-04-30T19:32:07.706Z,6.05
2023-04-30T19:34:34.877Z,4.43
2023-04-30T19:37:01.693Z,3.63
2023-04-30T19:39:34.497Z,2.55
2023-04-30T19:42:01.591Z,3.70
2023-04-30T19:44:31.515Z,3.67
2023-04-30T19:46:58.475Z,3.58
2023-04-30T19:49:26.584Z,4.22
2023-04-30T19:51:54.772Z,5.55
2023-04-30T19:54:21.844Z,2.53
2023-04-30T19:56:52.642Z,5.18
2023-04-30T19:59:19.570Z,7.18
2023-04-30T20:01:46.507Z,4.80
2023-04-30T20:04:13.424Z,4.82
2023-04-30T20:06:40.400Z,3.47
2023-04-30T20:09:07.668Z,5.63
2023-04-30T20:11:34.538Z,4.97
2023-04-30T20:14:01.393Z,3.95
2023-04-30T20:16:28.327Z,4.63
2023-04-30T20:18:55.270Z,5.63
2023-04-30T20:21:24.428Z,5.72
2023-04-30T20:23:51.345Z,5.25
2023-04-30T20:26:18.456Z,5.68
2023-04-30T20:28:45.413Z,5.47
2023-04-30T20:31:12.643Z,3.70
2023-04-30T20:33:41.158Z,5.65
2023-04-30T20:36:08.329Z,5.60
2023-04-30T20:38:35.358Z,7.55
2023-04-30T20:41:02.175Z,5.50
2023-04-30T20:43:29.159Z,4.70
2023-04-30T20:45:58.886Z,6.13
2023-04-30T20:48:26.909Z,4.43
2023-04-30T20:50:53.896Z,6.18
2023-04-30T20:53:21.553Z,8.45
2023-04-30T20:55:48.587Z,6.03
2023-04-30T20:58:15.978Z,3.28
2023-04-30T21:00:42.843Z,3.90
2023-04-30T21:03:09.840Z,4.07
2023-04-30T21:05:37.067Z,5.85
2023-04-30T21:08:04.061Z,4.28
2023-04-30T21:10:35.409Z,4.28
2023-04-30T21:13:05.528Z,5.38
2023-04-30T21:15:35.158Z,6.50
2023-04-30T21:18:02.276Z,5.35
2023-04-30T21:20:31.210Z,3.10
2023-04-30T21:22:58.115Z,5.53
2023-04-30T21:25:25.102Z,6.78
2023-04-30T21:27:52.215Z,6.25
2023-04-30T21:30:19.798Z,3.45
2023-04-30T21:32:49.491Z,4.90
2023-04-30T21:35:17.359Z,6.63
2023-04-30T21:37:44.266Z,3.03
2023-04-30T21:40:11.879Z,5.22
2023-04-30T21:42:38.735Z,6.88
2023-04-30T21:45:06.282Z,9.38
2023-04-30T21:48:06.337Z,6.50
2023-04-30T21:54:29.955Z,3.75
2023-04-30T21:57:01.113Z,4.90
2023-04-30T21:59:28.339Z,5.45
2023-04-30T22:01:55.273Z,5.32
2023-04-30T22:04:35.093Z,4.82
2023-04-30T22:07:02.383Z,5.93
2023-04-30T22:09:35.434Z,3.78
2023-04-30T22:12:04.532Z,6.00
2023-04-30T22:14:31.365Z,5.47
2023-04-30T22:16:58.360Z,4.25
2023-04-30T22:19:25.320Z,4.47
2023-04-30T22:21:52.876Z,3.47
2023-04-30T22:24:19.849Z,7.13
2023-04-30T22:26:46.667Z,5.45
2023-04-30T22:29:13.863Z,4.03
2023-04-30T22:31:40.693Z,6.20
2023-04-30T22:34:09.152Z,3.90
2023-04-30T22:36:36.033Z,3.80
2023-04-30T22:39:03.681Z,5.03
2023-04-30T22:41:30.632Z,3.33
2023-04-30T22:43:57.474Z,5.00
2023-04-30T22:46:24.518Z,4.97
2023-04-30T22:48:52.334Z,5.47
2023-04-30T22:51:19.341Z,5.00
2023-04-30T22:53:46.406Z,6.40
2023-04-30T22:56:13.584Z,5.13
2023-04-30T22:58:40.491Z,4.55
2023-04-30T23:01:07.996Z,8.75
2023-04-30T23:03:35.434Z,3.10
2023-04-30T23:06:02.779Z,5.20
2023-04-30T23:08:29.620Z,4.00
2023-04-30T23:10:56.495Z,4.38
2023-04-30T23:13:23.481Z,3.15
2023-04-30T23:15:53.196Z,5.75
2023-04-30T23:18:21.390Z,7.32
2023-04-30T23:20:48.218Z,6.13
2023-04-30T23:23:15.137Z,5.45
2023-04-30T23:25:42.003Z,6.22
2023-04-30T23:28:08.868Z,6.20
2023-04-30T23:30:39.288Z,6.18
2023-04-30T23:33:06.405Z,6.78
2023-04-30T23:35:33.294Z,12.48
2023-04-30T23:38:00.266Z,6.10
2023-04-30T23:40:28.192Z,5.70
2023-04-30T23:42:55.284Z,6.05
2023-04-30T23:45:22.368Z,5.53
2023-04-30T23:47:49.514Z,3.75
2023-04-30T23:50:16.394Z,4.57
2023-04-30T23:52:44.031Z,5.00
2023-04-30T23:55:11.408Z,7.18
2023-04-30T23:57:38.296Z,5.95
